sensor_id;sensor_type;location;lat;lon;timestamp;pressure;altitude;pressure_sealevel;temperature;humidity
56272;BME280;42177;48.914;18.160;2024-02-21T00:03:01;993.8;;;7.9;98
56272;BME280;42177;48.914;18.160;2024-02-21T00:08:01;993.7;;;7.5;98.9
56272;BME280;42177;48.914;18.160;2024-02-21T00:13:01;993.7;;;7.5;98.9
56272;BME280;42177;48.914;18.160;2024-02-21T00:18:01;993.6;;;7.4;98.8
56272;BME280;42177;48.914;18.160;2024-02-21T00:23:01;993.6;;;7.4;98.8
56272;BME280;42177;48.914;18.160;2024-02-21T00:28:01;993.5;;;7.3;98.7
56272;BME280;42177;48.914;18.160;2024-02-21T00:33:01;993.5;;;7.3;98.7
56272;BME280;42177;48.914;18.160;2024-02-21T00:38:01;993.4;;;7.3;98.2
56272;BME280;42177;48.914;18.160;2024-02-21T00:43:01;993.4;;;7.3;98.2
56272;BME280;42177;48.914;18.160;2024-02-21T00:48:01;993.3;;;7.3;98.5
56272;BME280;42177;48.914;18.160;2024-02-21T00:53:01;993.3;;;7.3;98.5
56272;BME280;42177;48.914;18.160;2024-02-21T00:58:01;993.2;;;7.3;99.8
56272;BME280;42177;48.914;18.160;2024-02-21T01:03:01;993.2;;;7.3;99.8
56272;BME280;42177;48.914;18.160;2024-02-21T01:08:01;993.3;;;7.4;100
56272;BME280;42177;48.914;18.160;2024-02-21T01:13:02;993.3;;;7.4;100
56272;BME280;42177;48.914;18.160;2024-02-21T01:18:02;993.1;;;7.2;100
56272;BME280;42177;48.914;18.160;2024-02-21T01:23:01;993.1;;;7.2;100
56272;BME280;42177;48.914;18.160;2024-02-21T01:28:02;993.1;;;7.3;100
56272;BME280;42177;48.914;18.160;2024-02-21T01:33:03;993.1;;;7.3;100
56272;BME280;42177;48.914;18.160;2024-02-21T01:38:01;993.1;;;7.6;98.3
56272;BME280;42177;48.914;18.160;2024-02-21T01:43:01;993.1;;;7.6;98.3
56272;BME280;42177;48.914;18.160;2024-02-21T01:48:01;993.1;;;7.2;100
56272;BME280;42177;48.914;18.160;2024-02-21T01:53:01;993.1;;;7.2;100
56272;BME280;42177;48.914;18.160;2024-02-21T01:58:01;993;;;7.7;98.5
56272;BME280;42177;48.914;18.160;2024-02-21T02:03:01;993;;;7.7;98.5
56272;BME280;42177;48.914;18.160;2024-02-21T02:08:01;993.1;;;8.1;97.4
56272;BME280;42177;48.914;18.160;2024-02-21T02:13:03;993.1;;;8.1;97.4
56272;BME280;42177;48.914;18.160;2024-02-21T02:18:01;992.9;;;7.1;100
56272;BME280;42177;48.914;18.160;2024-02-21T02:23:02;992.9;;;7.1;100
56272;BME280;42177;48.914;18.160;2024-02-21T02:28:02;992.9;;;7.6;99.9
56272;BME280;42177;48.914;18.160;2024-02-21T02:33:01;992.9;;;7.6;99.9
56272;BME280;42177;48.914;18.160;2024-02-21T02:38:01;992.7;;;7.7;98.8
56272;BME280;42177;48.914;18.160;2024-02-21T02:43:01;992.7;;;7.7;98.8
56272;BME280;42177;48.914;18.160;2024-02-21T02:48:02;992.6;;;7.5;100
56272;BME280;42177;48.914;18.160;2024-02-21T02:53:01;992.6;;;7.5;100
56272;BME280;42177;48.914;18.160;2024-02-21T02:58:01;992.7;;;7.4;100
56272;BME280;42177;48.914;18.160;2024-02-21T03:03:01;992.7;;;7.4;100
56272;BME280;42177;48.914;18.160;2024-02-21T03:08:01;992.7;;;7.3;100
56272;BME280;42177;48.914;18.160;2024-02-21T03:13:01;992.7;;;7.3;100
56272;BME280;42177;48.914;18.160;2024-02-21T03:18:01;992.7;;;7.2;100
56272;BME280;42177;48.914;18.160;2024-02-21T03:23:01;992.7;;;7.2;100
56272;BME280;42177;48.914;18.160;2024-02-21T03:28:01;992.7;;;7.3;100
56272;BME280;42177;48.914;18.160;2024-02-21T03:33:02;992.7;;;7.3;100
56272;BME280;42177;48.914;18.160;2024-02-21T03:38:01;992.6;;;7;100
56272;BME280;42177;48.914;18.160;2024-02-21T03:43:01;992.6;;;7;100
56272;BME280;42177;48.914;18.160;2024-02-21T03:48:02;992.6;;;6.9;100
56272;BME280;42177;48.914;18.160;2024-02-21T03:53:01;992.6;;;6.9;100
56272;BME280;42177;48.914;18.160;2024-02-21T03:58:01;992.6;;;6.8;100
56272;BME280;42177;48.914;18.160;2024-02-21T04:03:02;992.6;;;6.8;100
56272;BME280;42177;48.914;18.160;2024-02-21T04:08:03;992.5;;;6.6;100
56272;BME280;42177;48.914;18.160;2024-02-21T04:13:01;992.5;;;6.6;100
56272;BME280;42177;48.914;18.160;2024-02-21T04:18:01;992.5;;;6.5;100
56272;BME280;42177;48.914;18.160;2024-02-21T04:23:01;992.5;;;6.5;100
56272;BME280;42177;48.914;18.160;2024-02-21T04:28:02;992.6;;;6.7;100
56272;BME280;42177;48.914;18.160;2024-02-21T04:33:01;992.6;;;6.7;100
56272;BME280;42177;48.914;18.160;2024-02-21T04:38:01;992.4;;;6.5;100
56272;BME280;42177;48.914;18.160;2024-02-21T04:43:01;992.4;;;6.5;100
56272;BME280;42177;48.914;18.160;2024-02-21T04:48:02;992.4;;;6.8;100
56272;BME280;42177;48.914;18.160;2024-02-21T04:53:01;992.4;;;6.8;100
56272;BME280;42177;48.914;18.160;2024-02-21T04:58:01;992.3;;;6.4;100
56272;BME280;42177;48.914;18.160;2024-02-21T05:03:02;992.3;;;6.4;100
56272;BME280;42177;48.914;18.160;2024-02-21T05:08:01;992.3;;;6.6;100
56272;BME280;42177;48.914;18.160;2024-02-21T05:13:01;992.3;;;6.6;100
56272;BME280;42177;48.914;18.160;2024-02-21T05:18:01;992.2;;;6.6;100
56272;BME280;42177;48.914;18.160;2024-02-21T05:23:01;992.2;;;6.6;100
56272;BME280;42177;48.914;18.160;2024-02-21T05:28:01;992.2;;;6.6;100
56272;BME280;42177;48.914;18.160;2024-02-21T05:33:03;992.2;;;6.6;100
56272;BME280;42177;48.914;18.160;2024-02-21T05:38:01;992.2;;;6.3;100
56272;BME280;42177;48.914;18.160;2024-02-21T05:43:01;992.2;;;6.3;100
56272;BME280;42177;48.914;18.160;2024-02-21T05:48:02;992.3;;;6.5;100
56272;BME280;42177;48.914;18.160;2024-02-21T05:53:01;992.3;;;6.5;100
56272;BME280;42177;48.914;18.160;2024-02-21T05:58:01;992.3;;;6.8;100
56272;BME280;42177;48.914;18.160;2024-02-21T06:03:01;992.3;;;6.8;100
56272;BME280;42177;48.914;18.160;2024-02-21T06:08:02;992.3;;;6.6;100
56272;BME280;42177;48.914;18.160;2024-02-21T06:13:02;992.3;;;6.6;100
56272;BME280;42177;48.914;18.160;2024-02-21T06:18:01;992.3;;;6.6;100
56272;BME280;42177;48.914;18.160;2024-02-21T06:23:01;992.3;;;6.6;100
56272;BME280;42177;48.914;18.160;2024-02-21T06:28:02;992.3;;;6.8;100
56272;BME280;42177;48.914;18.160;2024-02-21T06:33:01;992.3;;;6.8;100
56272;BME280;42177;48.914;18.160;2024-02-21T06:38:01;992.3;;;7;100
56272;BME280;42177;48.914;18.160;2024-02-21T06:43:01;992.3;;;7;100
56272;BME280;42177;48.914;18.160;2024-02-21T06:48:01;992.5;;;6.9;100
56272;BME280;42177;48.914;18.160;2024-02-21T06:53:01;992.5;;;6.9;100
56272;BME280;42177;48.914;18.160;2024-02-21T06:58:01;992.4;;;7;100
56272;BME280;42177;48.914;18.160;2024-02-21T07:03:01;992.4;;;7;100
56272;BME280;42177;48.914;18.160;2024-02-21T07:08:02;992.4;;;7.1;100
56272;BME280;42177;48.914;18.160;2024-02-21T07:13:01;992.4;;;7.1;100
56272;BME280;42177;48.914;18.160;2024-02-21T07:18:01;992.4;;;6.8;100
56272;BME280;42177;48.914;18.160;2024-02-21T07:23:01;992.4;;;6.8;100
56272;BME280;42177;48.914;18.160;2024-02-21T07:28:02;992.4;;;7.1;100
56272;BME280;42177;48.914;18.160;2024-02-21T07:33:01;992.4;;;7.1;100
56272;BME280;42177;48.914;18.160;2024-02-21T07:38:01;992.5;;;7.2;100
56272;BME280;42177;48.914;18.160;2024-02-21T07:43:01;992.5;;;7.2;100
56272;BME280;42177;48.914;18.160;2024-02-21T07:48:02;992.3;;;7.3;100
56272;BME280;42177;48.914;18.160;2024-02-21T07:53:01;992.3;;;7.3;100
56272;BME280;42177;48.914;18.160;2024-02-21T07:58:01;992.3;;;7.8;100
56272;BME280;42177;48.914;18.160;2024-02-21T08:03:02;992.3;;;7.8;100
56272;BME280;42177;48.914;18.160;2024-02-21T08:08:02;992.2;;;8;100
56272;BME280;42177;48.914;18.160;2024-02-21T08:13:01;992.2;;;8;100
56272;BME280;42177;48.914;18.160;2024-02-21T08:18:01;992.1;;;8.4;100
56272;BME280;42177;48.914;18.160;2024-02-21T08:23:01;992.1;;;8.4;100
56272;BME280;42177;48.914;18.160;2024-02-21T08:28:02;992.2;;;8;99.2
56272;BME280;42177;48.914;18.160;2024-02-21T08:33:01;992.2;;;8;99.2
56272;BME280;42177;48.914;18.160;2024-02-21T08:38:01;992.1;;;8.6;97.1
56272;BME280;42177;48.914;18.160;2024-02-21T08:43:01;992.1;;;8.6;97.1
56272;BME280;42177;48.914;18.160;2024-02-21T08:48:02;992;;;8.2;96.6
56272;BME280;42177;48.914;18.160;2024-02-21T08:53:01;992;;;8.2;96.6
56272;BME280;42177;48.914;18.160;2024-02-21T08:58:01;992;;;8.6;95.8
56272;BME280;42177;48.914;18.160;2024-02-21T09:03:02;992;;;8.6;95.8
56272;BME280;42177;48.914;18.160;2024-02-21T09:08:02;992;;;9.8;92.1
56272;BME280;42177;48.914;18.160;2024-02-21T09:13:01;992;;;9.8;92.1
56272;BME280;42177;48.914;18.160;2024-02-21T09:18:01;992;;;9.6;89.1
56272;BME280;42177;48.914;18.160;2024-02-21T09:23:01;992;;;9.6;89.1
56272;BME280;42177;48.914;18.160;2024-02-21T09:28:02;991.9;;;10.9;84.4
56272;BME280;42177;48.914;18.160;2024-02-21T09:33:01;991.9;;;10.9;84.4
56272;BME280;42177;48.914;18.160;2024-02-21T09:38:01;991.8;;;11.6;80.4
56272;BME280;42177;48.914;18.160;2024-02-21T09:43:02;991.8;;;11.6;80.4
56272;BME280;42177;48.914;18.160;2024-02-21T09:48:07;991.7;;;11.7;78.7
56272;BME280;42177;48.914;18.160;2024-02-21T09:53:01;991.7;;;11.7;78.7
56272;BME280;42177;48.914;18.160;2024-02-21T09:58:01;991.7;;;12.1;75.7
56272;BME280;42177;48.914;18.160;2024-02-21T10:03:02;991.7;;;12.1;75.7
56272;BME280;42177;48.914;18.160;2024-02-21T10:08:02;991.6;;;12.5;74
56272;BME280;42177;48.914;18.160;2024-02-21T10:13:01;991.6;;;12.5;74
56272;BME280;42177;48.914;18.160;2024-02-21T10:18:01;991.5;;;11.8;76.1
56272;BME280;42177;48.914;18.160;2024-02-21T10:23:02;991.5;;;11.8;76.1
56272;BME280;42177;48.914;18.160;2024-02-21T10:28:02;991.4;;;10.7;79.7
56272;BME280;42177;48.914;18.160;2024-02-21T10:33:01;991.4;;;10.7;79.7
56272;BME280;42177;48.914;18.160;2024-02-21T10:38:01;991.4;;;10.9;80.2
56272;BME280;42177;48.914;18.160;2024-02-21T10:43:01;991.4;;;10.9;80.2
56272;BME280;42177;48.914;18.160;2024-02-21T10:48:06;991.2;;;10.7;80.5
56272;BME280;42177;48.914;18.160;2024-02-21T10:53:08;991.2;;;10.7;80.5
56272;BME280;42177;48.914;18.160;2024-02-21T10:58:01;991.1;;;10.3;82
56272;BME280;42177;48.914;18.160;2024-02-21T11:03:02;991.1;;;10.3;82
56272;BME280;42177;48.914;18.160;2024-02-21T11:08:02;991.1;;;10.4;81.6
56272;BME280;42177;48.914;18.160;2024-02-21T11:13:06;991.1;;;10.4;81.6
56272;BME280;42177;48.914;18.160;2024-02-21T11:18:01;990.8;;;10.6;81.4
56272;BME280;42177;48.914;18.160;2024-02-21T11:23:02;990.8;;;10.6;81.4
56272;BME280;42177;48.914;18.160;2024-02-21T11:28:02;990.8;;;10.9;82.3
56272;BME280;42177;48.914;18.160;2024-02-21T11:33:02;990.8;;;10.9;82.3
56272;BME280;42177;48.914;18.160;2024-02-21T11:38:17;990.8;;;10.7;82.4
56272;BME280;42177;48.914;18.160;2024-02-21T11:43:01;990.8;;;10.7;82.4
56272;BME280;42177;48.914;18.160;2024-02-21T11:48:02;990.7;;;10.4;82.3
56272;BME280;42177;48.914;18.160;2024-02-21T11:53:01;990.7;;;10.4;82.3
56272;BME280;42177;48.914;18.160;2024-02-21T11:58:01;990.6;;;10.5;82.8
56272;BME280;42177;48.914;18.160;2024-02-21T12:03:01;990.6;;;10.5;82.8
56272;BME280;42177;48.914;18.160;2024-02-21T12:08:02;990.5;;;10.5;83.9
56272;BME280;42177;48.914;18.160;2024-02-21T12:13:05;990.5;;;10.5;83.9
56272;BME280;42177;48.914;18.160;2024-02-21T12:18:02;990.3;;;10.1;85.3
56272;BME280;42177;48.914;18.160;2024-02-21T12:23:01;990.3;;;10.1;85.3
56272;BME280;42177;48.914;18.160;2024-02-21T12:28:02;990.2;;;10.1;87.4
56272;BME280;42177;48.914;18.160;2024-02-21T12:33:01;990.2;;;10.1;87.4
56272;BME280;42177;48.914;18.160;2024-02-21T12:38:02;990.1;;;9.9;90
56272;BME280;42177;48.914;18.160;2024-02-21T12:43:02;990.1;;;9.9;90
56272;BME280;42177;48.914;18.160;2024-02-21T12:48:01;990;;;10.1;90.9
56272;BME280;42177;48.914;18.160;2024-02-21T12:53:01;990;;;10.1;90.9
56272;BME280;42177;48.914;18.160;2024-02-21T12:58:03;989.9;;;10.2;91
56272;BME280;42177;48.914;18.160;2024-02-21T13:03:02;989.9;;;10.2;91
56272;BME280;42177;48.914;18.160;2024-02-21T13:08:02;989.8;;;10.3;91.2
56272;BME280;42177;48.914;18.160;2024-02-21T13:13:01;989.8;;;10.3;91.2
56272;BME280;42177;48.914;18.160;2024-02-21T13:18:01;989.7;;;10.1;93.2
56272;BME280;42177;48.914;18.160;2024-02-21T13:23:02;989.7;;;10.1;93.2
56272;BME280;42177;48.914;18.160;2024-02-21T13:28:02;989.6;;;10.2;91.7
56272;BME280;42177;48.914;18.160;2024-02-21T13:33:02;989.6;;;10.2;91.7
56272;BME280;42177;48.914;18.160;2024-02-21T13:38:02;989.6;;;10.1;90.9
56272;BME280;42177;48.914;18.160;2024-02-21T13:43:01;989.6;;;10.1;90.9
56272;BME280;42177;48.914;18.160;2024-02-21T13:48:02;989.4;;;10.4;91.6
56272;BME280;42177;48.914;18.160;2024-02-21T13:53:01;989.4;;;10.4;91.6
56272;BME280;42177;48.914;18.160;2024-02-21T13:58:01;989.3;;;10.3;92
56272;BME280;42177;48.914;18.160;2024-02-21T14:03:01;989.3;;;10.3;92
56272;BME280;42177;48.914;18.160;2024-02-21T14:08:02;989.2;;;10.6;91.8
56272;BME280;42177;48.914;18.160;2024-02-21T14:13:02;989.2;;;10.6;91.8
56272;BME280;42177;48.914;18.160;2024-02-21T14:18:02;989.2;;;10.6;91.5
56272;BME280;42177;48.914;18.160;2024-02-21T14:23:02;989.2;;;10.6;91.5
56272;BME280;42177;48.914;18.160;2024-02-21T14:28:02;989.1;;;10.5;91.8
56272;BME280;42177;48.914;18.160;2024-02-21T14:33:02;989.1;;;10.5;91.8
56272;BME280;42177;48.914;18.160;2024-02-21T14:38:01;988.9;;;10.5;92.7
56272;BME280;42177;48.914;18.160;2024-02-21T14:43:02;988.9;;;10.5;92.7
56272;BME280;42177;48.914;18.160;2024-02-21T14:48:02;988.8;;;10.4;91.8
56272;BME280;42177;48.914;18.160;2024-02-21T14:53:02;988.8;;;10.4;91.8
56272;BME280;42177;48.914;18.160;2024-02-21T14:58:02;988.8;;;10.4;89.7
56272;BME280;42177;48.914;18.160;2024-02-21T15:03:02;988.8;;;10.4;89.7
56272;BME280;42177;48.914;18.160;2024-02-21T15:08:03;988.8;;;10.2;90.2
56272;BME280;42177;48.914;18.160;2024-02-21T15:13:01;988.8;;;10.2;90.2
56272;BME280;42177;48.914;18.160;2024-02-21T15:18:02;988.7;;;10.1;90.8
56272;BME280;42177;48.914;18.160;2024-02-21T15:23:02;988.7;;;10.1;90.8
56272;BME280;42177;48.914;18.160;2024-02-21T15:28:02;988.7;;;10;92
56272;BME280;42177;48.914;18.160;2024-02-21T15:33:02;988.7;;;10;92
56272;BME280;42177;48.914;18.160;2024-02-21T15:38:02;988.6;;;10.2;92
56272;BME280;42177;48.914;18.160;2024-02-21T15:43:02;988.6;;;10.2;92
56272;BME280;42177;48.914;18.160;2024-02-21T15:48:01;988.6;;;10.1;93
56272;BME280;42177;48.914;18.160;2024-02-21T15:53:01;988.6;;;10.1;93
56272;BME280;42177;48.914;18.160;2024-02-21T15:58:01;988.6;;;10.1;93.2
56272;BME280;42177;48.914;18.160;2024-02-21T16:03:02;988.6;;;10.1;93.2
56272;BME280;42177;48.914;18.160;2024-02-21T16:08:02;988.5;;;10.1;93.4
56272;BME280;42177;48.914;18.160;2024-02-21T16:13:02;988.5;;;10.1;93.4
56272;BME280;42177;48.914;18.160;2024-02-21T16:18:02;988.5;;;10;93.7
56272;BME280;42177;48.914;18.160;2024-02-21T16:23:02;988.5;;;10;93.7
56272;BME280;42177;48.914;18.160;2024-02-21T16:28:02;988.4;;;10;92.9
56272;BME280;42177;48.914;18.160;2024-02-21T16:33:02;988.4;;;10;92.9
56272;BME280;42177;48.914;18.160;2024-02-21T16:38:02;988.3;;;10.1;93.2
56272;BME280;42177;48.914;18.160;2024-02-21T16:43:02;988.3;;;10.1;93.2
56272;BME280;42177;48.914;18.160;2024-02-21T16:48:02;988.5;;;10.1;92.5
56272;BME280;42177;48.914;18.160;2024-02-21T16:53:02;988.5;;;10.1;92.5
56272;BME280;42177;48.914;18.160;2024-02-21T16:58:01;988.4;;;9.8;93.3
56272;BME280;42177;48.914;18.160;2024-02-21T17:03:02;988.4;;;9.8;93.3
56272;BME280;42177;48.914;18.160;2024-02-21T17:08:02;988.2;;;9.8;93.4
56272;BME280;42177;48.914;18.160;2024-02-21T17:13:02;988.2;;;9.8;93.4
56272;BME280;42177;48.914;18.160;2024-02-21T17:18:02;988.3;;;9.8;92.5
56272;BME280;42177;48.914;18.160;2024-02-21T17:23:02;988.3;;;9.8;92.5
56272;BME280;42177;48.914;18.160;2024-02-21T17:28:02;988.4;;;9.7;93.5
56272;BME280;42177;48.914;18.160;2024-02-21T17:33:02;988.4;;;9.7;93.5
56272;BME280;42177;48.914;18.160;2024-02-21T17:38:02;988.4;;;9.8;93.8
56272;BME280;42177;48.914;18.160;2024-02-21T17:43:02;988.4;;;9.8;93.8
56272;BME280;42177;48.914;18.160;2024-02-21T17:48:02;988.4;;;9.4;95.8
56272;BME280;42177;48.914;18.160;2024-02-21T17:53:01;988.4;;;9.4;95.8
56272;BME280;42177;48.914;18.160;2024-02-21T17:58:02;988.2;;;9.2;97.3
56272;BME280;42177;48.914;18.160;2024-02-21T18:03:02;988.2;;;9.2;97.3
56272;BME280;42177;48.914;18.160;2024-02-21T18:08:02;988.1;;;9.3;95.9
56272;BME280;42177;48.914;18.160;2024-02-21T18:13:02;988.1;;;9.3;95.9
56272;BME280;42177;48.914;18.160;2024-02-21T18:18:02;988;;;9.4;94.8
56272;BME280;42177;48.914;18.160;2024-02-21T18:23:02;988;;;9.4;94.8
56272;BME280;42177;48.914;18.160;2024-02-21T18:28:02;987.9;;;9.7;93.1
56272;BME280;42177;48.914;18.160;2024-02-21T18:33:02;987.9;;;9.7;93.1
56272;BME280;42177;48.914;18.160;2024-02-21T18:38:01;987.6;;;9.6;93.1
56272;BME280;42177;48.914;18.160;2024-02-21T18:43:02;987.6;;;9.6;93.1
56272;BME280;42177;48.914;18.160;2024-02-21T18:48:02;987.6;;;9.6;92.5
56272;BME280;42177;48.914;18.160;2024-02-21T18:53:02;987.6;;;9.6;92.5
56272;BME280;42177;48.914;18.160;2024-02-21T18:58:02;987.3;;;9.5;92.2
56272;BME280;42177;48.914;18.160;2024-02-21T19:03:02;987.3;;;9.5;92.2
56272;BME280;42177;48.914;18.160;2024-02-21T19:08:02;987.2;;;9.6;91.5
56272;BME280;42177;48.914;18.160;2024-02-21T19:13:02;987.2;;;9.6;91.5
56272;BME280;42177;48.914;18.160;2024-02-21T19:18:02;987.2;;;9.4;91.3
56272;BME280;42177;48.914;18.160;2024-02-21T19:23:02;987.2;;;9.4;91.3
56272;BME280;42177;48.914;18.160;2024-02-21T19:28:02;987.1;;;9.3;90.8
56272;BME280;42177;48.914;18.160;2024-02-21T19:33:02;987.1;;;9.3;90.8
56272;BME280;42177;48.914;18.160;2024-02-21T19:38:02;986.9;;;9.2;91
56272;BME280;42177;48.914;18.160;2024-02-21T19:43:02;986.9;;;9.2;91
56272;BME280;42177;48.914;18.160;2024-02-21T19:48:02;986.9;;;9.3;90.7
56272;BME280;42177;48.914;18.160;2024-02-21T19:53:02;986.9;;;9.3;90.7
56272;BME280;42177;48.914;18.160;2024-02-21T19:58:02;986.9;;;9.1;91.3
56272;BME280;42177;48.914;18.160;2024-02-21T20:03:02;986.9;;;9.1;91.3
56272;BME280;42177;48.914;18.160;2024-02-21T20:08:02;986.9;;;9;91
56272;BME280;42177;48.914;18.160;2024-02-21T20:13:02;986.9;;;9;91
56272;BME280;42177;48.914;18.160;2024-02-21T20:18:02;987;;;9.2;90.9
56272;BME280;42177;48.914;18.160;2024-02-21T20:23:02;987;;;9.2;90.9
56272;BME280;42177;48.914;18.160;2024-02-21T20:28:02;986.9;;;9;91.1
56272;BME280;42177;48.914;18.160;2024-02-21T20:33:02;986.9;;;9;91.1
56272;BME280;42177;48.914;18.160;2024-02-21T20:38:02;986.7;;;8.9;91.5
56272;BME280;42177;48.914;18.160;2024-02-21T20:43:02;986.7;;;8.9;91.5
56272;BME280;42177;48.914;18.160;2024-02-21T20:48:04;986.7;;;8.9;90.9
56272;BME280;42177;48.914;18.160;2024-02-21T20:53:02;986.7;;;8.9;90.9
56272;BME280;42177;48.914;18.160;2024-02-21T20:58:02;986.5;;;8.5;92.9
56272;BME280;42177;48.914;18.160;2024-02-21T21:03:02;986.5;;;8.5;92.9
56272;BME280;42177;48.914;18.160;2024-02-21T21:08:02;986.6;;;8.5;92.6
56272;BME280;42177;48.914;18.160;2024-02-21T21:13:02;986.6;;;8.5;92.6
56272;BME280;42177;48.914;18.160;2024-02-21T21:18:02;986.5;;;8.7;91.2
56272;BME280;42177;48.914;18.160;2024-02-21T21:23:02;986.5;;;8.7;91.2
56272;BME280;42177;48.914;18.160;2024-02-21T21:28:02;986.2;;;8.4;93.1
56272;BME280;42177;48.914;18.160;2024-02-21T21:33:02;986.2;;;8.4;93.1
56272;BME280;42177;48.914;18.160;2024-02-21T21:38:02;985.9;;;8.4;91.9
56272;BME280;42177;48.914;18.160;2024-02-21T21:43:02;985.9;;;8.4;91.9
56272;BME280;42177;48.914;18.160;2024-02-21T21:48:02;985.7;;;8.4;91.6
56272;BME280;42177;48.914;18.160;2024-02-21T21:53:02;985.7;;;8.4;91.6
56272;BME280;42177;48.914;18.160;2024-02-21T21:58:02;985.6;;;8.3;91.1
56272;BME280;42177;48.914;18.160;2024-02-21T22:03:02;985.6;;;8.3;91.1
56272;BME280;42177;48.914;18.160;2024-02-21T22:08:02;985.5;;;8.4;90.2
56272;BME280;42177;48.914;18.160;2024-02-21T22:13:02;985.5;;;8.4;90.2
56272;BME280;42177;48.914;18.160;2024-02-21T22:18:03;985.3;;;8.3;89.4
56272;BME280;42177;48.914;18.160;2024-02-21T22:23:02;985.3;;;8.3;89.4
56272;BME280;42177;48.914;18.160;2024-02-21T22:28:02;985.4;;;8.3;87.8
56272;BME280;42177;48.914;18.160;2024-02-21T22:33:02;985.4;;;8.3;87.8
56272;BME280;42177;48.914;18.160;2024-02-21T22:38:02;985.1;;;8.4;85.8
56272;BME280;42177;48.914;18.160;2024-02-21T22:43:02;985.1;;;8.4;85.8
56272;BME280;42177;48.914;18.160;2024-02-21T22:48:02;984.9;;;8.3;84.9
56272;BME280;42177;48.914;18.160;2024-02-21T22:53:02;984.9;;;8.3;84.9
56272;BME280;42177;48.914;18.160;2024-02-21T22:58:02;984.8;;;8.5;82.9
56272;BME280;42177;48.914;18.160;2024-02-21T23:03:02;984.8;;;8.5;82.9
56272;BME280;42177;48.914;18.160;2024-02-21T23:08:02;984.7;;;8.5;81.8
56272;BME280;42177;48.914;18.160;2024-02-21T23:13:02;984.7;;;8.5;81.8
56272;BME280;42177;48.914;18.160;2024-02-21T23:18:02;984.6;;;8.7;81
56272;BME280;42177;48.914;18.160;2024-02-21T23:23:02;984.6;;;8.7;81
56272;BME280;42177;48.914;18.160;2024-02-21T23:28:02;984.8;;;8.9;78.2
56272;BME280;42177;48.914;18.160;2024-02-21T23:33:02;984.8;;;8.9;78.2
56272;BME280;42177;48.914;18.160;2024-02-21T23:38:02;984.6;;;8.7;77.5
56272;BME280;42177;48.914;18.160;2024-02-21T23:43:02;984.6;;;8.7;77.5
56272;BME280;42177;48.914;18.160;2024-02-21T23:48:02;984.2;;;8.9;77.3
56272;BME280;42177;48.914;18.160;2024-02-21T23:53:02;984.2;;;8.9;77.3
56272;BME280;42177;48.914;18.160;2024-02-21T23:58:02;984.2;;;8.6;77.6
